createdAt,value
2018-07-15T00:01:48.353Z,99.90
2018-07-15T00:04:16.701Z,99.90
2018-07-15T00:06:45.089Z,99.90
2018-07-15T00:09:13.501Z,99.90
2018-07-15T00:11:41.882Z,99.90
2018-07-15T00:14:10.328Z,99.90
2018-07-15T00:16:38.742Z,99.90
2018-07-15T00:19:07.166Z,99.90
2018-07-15T00:21:35.528Z,99.90
2018-07-15T00:24:03.910Z,99.90
2018-07-15T00:26:32.319Z,99.90
2018-07-15T00:29:00.686Z,99.90
2018-07-15T00:31:29.061Z,99.90
2018-07-15T00:33:57.441Z,99.90
2018-07-15T00:36:25.855Z,99.90
2018-07-15T00:38:54.224Z,99.90
2018-07-15T00:41:22.609Z,99.90
2018-07-15T00:43:51.213Z,99.90
2018-07-15T00:46:19.595Z,99.90
2018-07-15T00:48:47.989Z,99.90
2018-07-15T00:51:16.383Z,99.90
2018-07-15T00:53:44.774Z,99.90
2018-07-15T00:56:13.113Z,99.90
2018-07-15T00:58:41.465Z,99.90
2018-07-15T01:01:09.855Z,99.90
2018-07-15T01:03:38.232Z,99.90
2018-07-15T01:06:06.645Z,99.90
2018-07-15T01:08:35.025Z,99.90
2018-07-15T01:11:03.478Z,99.90
2018-07-15T01:13:31.908Z,99.90
2018-07-15T01:16:00.253Z,99.90
2018-07-15T01:18:28.653Z,99.90
2018-07-15T01:20:57.021Z,99.90
2018-07-15T01:23:25.453Z,99.90
2018-07-15T01:25:53.839Z,99.90
2018-07-15T01:28:22.165Z,99.90
2018-07-15T01:30:50.564Z,99.90
2018-07-15T01:33:18.929Z,99.90
2018-07-15T01:35:47.265Z,99.90
2018-07-15T01:38:15.622Z,99.90
2018-07-15T01:40:44.005Z,99.90
2018-07-15T01:43:12.412Z,99.90
2018-07-15T01:45:40.733Z,99.90
2018-07-15T01:48:09.128Z,99.90
2018-07-15T01:50:37.506Z,99.90
2018-07-15T01:53:05.922Z,99.90
2018-07-15T01:55:34.311Z,99.90
2018-07-15T01:58:02.678Z,99.90
2018-07-15T02:02:59.122Z,99.90
2018-07-15T02:05:27.522Z,99.90
2018-07-15T02:07:55.881Z,99.90
2018-07-15T02:10:24.255Z,99.90
2018-07-15T02:12:52.617Z,99.90
2018-07-15T02:15:21.023Z,99.90
2018-07-15T02:17:49.457Z,99.90
2018-07-15T02:20:17.913Z,99.90
2018-07-15T02:22:46.256Z,99.90
2018-07-15T02:25:14.624Z,99.90
2018-07-15T02:27:43.014Z,99.90
2018-07-15T02:30:11.446Z,99.90
2018-07-15T02:32:39.839Z,99.90
2018-07-15T02:35:08.200Z,99.90
2018-07-15T02:37:36.613Z,99.90
2018-07-15T02:40:05.094Z,99.90
2018-07-15T02:42:33.473Z,99.90
2018-07-15T02:45:01.881Z,99.90
2018-07-15T02:47:30.319Z,99.90
2018-07-15T02:49:58.664Z,99.90
2018-07-15T02:52:27.055Z,99.90
2018-07-15T02:54:55.465Z,99.90
2018-07-15T02:57:23.833Z,99.90
2018-07-15T02:59:52.217Z,99.90
2018-07-15T03:02:20.613Z,99.90
2018-07-15T03:04:49.031Z,99.90
2018-07-15T03:07:17.433Z,99.90
2018-07-15T03:09:45.861Z,99.90
2018-07-15T03:12:14.218Z,99.90
2018-07-15T03:14:42.601Z,99.90
2018-07-15T03:17:10.996Z,99.90
2018-07-15T03:19:39.358Z,99.90
2018-07-15T03:22:08.117Z,99.90
2018-07-15T03:24:36.495Z,99.90
2018-07-15T03:27:04.907Z,99.90
2018-07-15T03:29:33.248Z,99.90
2018-07-15T03:32:01.877Z,99.90
2018-07-15T03:34:30.305Z,99.90
2018-07-15T03:36:58.707Z,99.90
2018-07-15T03:39:27.032Z,99.90
2018-07-15T03:41:55.388Z,99.90
2018-07-15T03:44:23.795Z,99.90
2018-07-15T03:46:52.176Z,99.90
2018-07-15T03:49:20.559Z,99.90
2018-07-15T03:51:48.947Z,99.90
2018-07-15T03:54:17.385Z,99.90
2018-07-15T03:56:45.740Z,99.90
2018-07-15T03:59:14.145Z,99.90
2018-07-15T04:01:42.552Z,99.90
2018-07-15T04:04:10.954Z,99.90
2018-07-15T04:06:39.385Z,99.90
2018-07-15T04:09:07.872Z,99.90
2018-07-15T04:11:36.712Z,99.90
2018-07-15T04:14:05.275Z,99.90
2018-07-15T04:16:33.681Z,99.90
2018-07-15T04:19:02.119Z,99.90
2018-07-15T04:21:30.517Z,99.90
2018-07-15T04:23:58.903Z,99.90
2018-07-15T04:26:27.272Z,99.90
2018-07-15T04:28:55.711Z,99.90
2018-07-15T04:31:24.103Z,99.90
2018-07-15T04:33:52.481Z,99.90
2018-07-15T04:36:20.872Z,99.90
2018-07-15T04:38:49.296Z,99.90
2018-07-15T04:41:17.664Z,99.90
2018-07-15T04:43:46.108Z,99.90
2018-07-15T04:46:14.455Z,99.90
2018-07-15T04:48:42.835Z,99.90
2018-07-15T04:51:11.202Z,99.90
2018-07-15T04:53:39.585Z,99.90
2018-07-15T04:56:08.026Z,99.90
2018-07-15T04:58:36.498Z,99.90
2018-07-15T05:01:05.091Z,99.90
2018-07-15T05:03:33.503Z,99.90
2018-07-15T05:06:01.872Z,99.90
2018-07-15T05:08:30.238Z,99.90
2018-07-15T05:10:58.628Z,99.90
2018-07-15T05:13:26.987Z,99.90
2018-07-15T05:15:55.371Z,99.90
2018-07-15T05:18:23.753Z,99.90
2018-07-15T05:20:52.105Z,99.90
2018-07-15T05:25:48.693Z,99.90
2018-07-15T05:28:17.140Z,99.90
2018-07-15T05:30:45.546Z,99.90
2018-07-15T05:33:13.893Z,99.90
2018-07-15T05:35:42.353Z,99.90
2018-07-15T05:38:10.712Z,99.90
2018-07-15T05:40:39.168Z,99.90
2018-07-15T05:43:07.737Z,99.90
2018-07-15T05:45:36.120Z,99.90
2018-07-15T05:48:04.556Z,99.90
2018-07-15T05:50:32.935Z,99.90
2018-07-15T05:53:01.302Z,99.90
2018-07-15T05:55:29.689Z,99.90
2018-07-15T05:57:58.326Z,99.90
2018-07-15T06:00:26.747Z,99.90
2018-07-15T06:02:55.124Z,99.90
2018-07-15T06:05:23.599Z,99.90
2018-07-15T06:07:51.994Z,99.90
2018-07-15T06:10:20.378Z,99.90
2018-07-15T06:12:48.810Z,99.90
2018-07-15T06:15:17.205Z,99.90
2018-07-15T06:17:45.600Z,99.90
2018-07-15T06:20:13.993Z,99.90
2018-07-15T06:22:42.461Z,99.90
2018-07-15T06:25:10.772Z,99.90
2018-07-15T06:30:07.321Z,99.90
2018-07-15T06:32:35.716Z,99.90
2018-07-15T06:35:04.417Z,99.90
2018-07-15T06:37:32.777Z,99.90
2018-07-15T06:40:01.168Z,99.90
2018-07-15T06:42:29.573Z,99.90
2018-07-15T06:44:58.014Z,99.90
2018-07-15T06:47:26.501Z,99.90
2018-07-15T06:49:54.899Z,99.90
2018-07-15T06:52:23.255Z,99.90
2018-07-15T06:54:51.798Z,99.90
2018-07-15T06:57:20.241Z,99.90
2018-07-15T06:59:48.613Z,99.90
2018-07-15T07:02:17.050Z,99.90
2018-07-15T07:04:45.436Z,99.90
2018-07-15T07:09:41.990Z,99.90
2018-07-15T07:12:10.359Z,99.90
2018-07-15T07:14:38.722Z,99.90
2018-07-15T07:17:07.073Z,99.90
2018-07-15T07:19:35.415Z,99.90
2018-07-15T07:22:03.947Z,99.90
2018-07-15T07:24:32.388Z,99.90
2018-07-15T07:27:01.247Z,99.90
2018-07-15T07:29:29.649Z,99.90
2018-07-15T07:31:58.053Z,99.90
2018-07-15T07:34:26.541Z,99.90
2018-07-15T07:36:55.063Z,99.90
2018-07-15T07:39:23.403Z,99.90
2018-07-15T07:41:51.864Z,99.90
2018-07-15T07:44:20.254Z,99.90
2018-07-15T07:46:48.622Z,99.90
2018-07-15T07:49:17.024Z,99.90
2018-07-15T07:51:45.429Z,99.90
2018-07-15T07:54:13.871Z,99.90
2018-07-15T07:56:42.217Z,99.90
2018-07-15T07:59:10.617Z,99.90
2018-07-15T08:01:39.045Z,99.90
2018-07-15T08:04:07.880Z,99.90
2018-07-15T08:06:36.375Z,99.90
2018-07-15T08:09:06.127Z,99.90
2018-07-15T08:11:34.701Z,99.90
2018-07-15T08:14:03.245Z,99.90
2018-07-15T08:16:31.784Z,99.90
2018-07-15T08:19:00.287Z,99.90
2018-07-15T08:21:28.693Z,99.90
2018-07-15T08:23:57.209Z,99.90
2018-07-15T08:26:25.635Z,99.90
2018-07-15T08:28:54.076Z,99.90
2018-07-15T08:31:22.470Z,99.90
2018-07-15T08:33:50.870Z,99.90
2018-07-15T08:36:19.298Z,99.90
2018-07-15T08:38:47.726Z,99.90
2018-07-15T08:41:16.176Z,99.90
2018-07-15T08:43:44.617Z,99.90
2018-07-15T08:46:13.020Z,99.90
2018-07-15T08:48:41.487Z,99.90
2018-07-15T08:51:09.860Z,99.90
2018-07-15T08:53:38.499Z,99.90
2018-07-15T08:56:06.956Z,99.90
2018-07-15T08:58:35.366Z,99.90
2018-07-15T09:01:03.896Z,99.90
2018-07-15T09:03:32.248Z,99.50
2018-07-15T09:06:00.705Z,99.90
2018-07-15T09:08:29.134Z,99.90
2018-07-15T09:10:57.520Z,99.90
2018-07-15T09:13:25.958Z,99.90
2018-07-15T09:15:54.368Z,99.90
2018-07-15T09:18:22.882Z,99.90
2018-07-15T09:20:51.269Z,99.90
2018-07-15T09:23:19.668Z,99.90
2018-07-15T09:25:48.064Z,99.90
2018-07-15T09:28:16.482Z,99.90
2018-07-15T09:30:44.892Z,99.90
2018-07-15T09:33:13.295Z,99.90
2018-07-15T09:35:41.765Z,99.80
2018-07-15T09:38:10.141Z,99.40
2018-07-15T09:40:38.526Z,98.90
2018-07-15T09:43:06.968Z,98.00
2018-07-15T09:45:35.360Z,98.20
2018-07-15T09:48:03.750Z,97.90
2018-07-15T09:50:32.185Z,97.10
2018-07-15T09:53:00.633Z,96.00
2018-07-15T09:55:28.981Z,95.90
2018-07-15T09:57:57.400Z,93.00
2018-07-15T10:00:31.148Z,93.60
2018-07-15T10:02:59.568Z,93.90
2018-07-15T10:05:27.988Z,92.20
2018-07-15T10:07:56.401Z,93.10
2018-07-15T10:10:24.812Z,91.80
2018-07-15T10:12:53.176Z,92.30
2018-07-15T10:15:21.578Z,92.10
2018-07-15T10:20:18.116Z,90.90
2018-07-15T10:22:46.515Z,90.50
2018-07-15T10:25:14.929Z,91.10
2018-07-15T10:27:43.408Z,89.80
2018-07-15T10:30:11.796Z,87.40
2018-07-15T10:32:40.289Z,87.80
2018-07-15T10:35:08.757Z,86.50
2018-07-15T10:37:37.288Z,86.70
2018-07-15T10:40:06.671Z,84.80
2018-07-15T10:42:35.153Z,84.50
2018-07-15T10:45:03.690Z,81.30
2018-07-15T10:47:32.129Z,79.90
2018-07-15T10:50:00.494Z,78.40
2018-07-15T10:52:28.889Z,78.80
2018-07-15T10:54:57.305Z,79.40
2018-07-15T10:57:25.732Z,82.30
2018-07-15T10:59:54.142Z,82.30
2018-07-15T11:02:22.524Z,83.10
2018-07-15T11:04:50.926Z,83.20
2018-07-15T11:07:19.337Z,83.00
2018-07-15T11:09:47.833Z,82.20
2018-07-15T11:12:16.274Z,83.40
2018-07-15T11:14:44.727Z,82.70
2018-07-15T11:17:13.218Z,81.40
2018-07-15T11:19:41.713Z,79.50
2018-07-15T11:22:10.098Z,79.80
2018-07-15T11:24:38.585Z,80.30
2018-07-15T11:27:07.094Z,80.00
2018-07-15T11:29:35.466Z,80.40
2018-07-15T11:32:03.939Z,77.50
2018-07-15T11:34:32.328Z,76.40
2018-07-15T11:37:00.715Z,74.60
2018-07-15T11:39:29.126Z,76.00
2018-07-15T11:41:57.488Z,75.10
2018-07-15T11:44:25.892Z,74.40
2018-07-15T11:46:54.325Z,72.70
2018-07-15T11:49:22.759Z,71.30
2018-07-15T11:51:51.253Z,73.30
2018-07-15T11:54:19.645Z,71.00
2018-07-15T11:56:48.155Z,73.20
2018-07-15T11:59:16.665Z,72.30
2018-07-15T12:01:45.231Z,69.60
2018-07-15T12:04:13.593Z,67.80
2018-07-15T12:06:42.171Z,70.30
2018-07-15T12:09:10.550Z,69.20
2018-07-15T12:11:38.952Z,68.50
2018-07-15T12:14:07.440Z,67.80
2018-07-15T12:16:35.884Z,66.40
2018-07-15T12:19:04.430Z,70.20
2018-07-15T12:21:32.877Z,68.00
2018-07-15T12:24:01.264Z,65.30
2018-07-15T12:26:29.706Z,65.90
2018-07-15T12:28:58.093Z,66.20
2018-07-15T12:31:26.589Z,66.70
2018-07-15T12:33:55.016Z,65.00
2018-07-15T12:36:23.494Z,64.20
2018-07-15T12:38:51.892Z,65.50
2018-07-15T12:41:20.467Z,65.60
2018-07-15T12:43:49.102Z,64.00
2018-07-15T12:46:17.534Z,63.50
2018-07-15T12:48:45.973Z,62.50
2018-07-15T12:53:42.536Z,58.20
2018-07-15T12:56:11.395Z,56.80
2018-07-15T12:58:39.879Z,56.20
2018-07-15T13:01:08.554Z,58.10
2018-07-15T13:03:37.466Z,57.20
2018-07-15T13:06:05.946Z,60.50
2018-07-15T13:08:34.399Z,57.80
2018-07-15T13:11:02.859Z,57.10
2018-07-15T13:13:31.282Z,56.70
2018-07-15T13:15:59.728Z,58.60
2018-07-15T13:18:28.173Z,59.90
2018-07-15T13:20:56.631Z,58.50
2018-07-15T13:23:25.044Z,59.80
2018-07-15T13:25:53.454Z,62.10
2018-07-15T13:28:21.872Z,65.40
2018-07-15T13:30:50.314Z,67.10
2018-07-15T13:53:27.948Z,75.90
2018-07-15T13:55:56.392Z,76.50
2018-07-15T13:58:24.822Z,76.70
2018-07-15T14:00:53.159Z,76.40
2018-07-15T14:03:21.535Z,77.20
2018-07-15T14:05:49.976Z,76.70
2018-07-15T14:08:18.340Z,77.80
2018-07-15T14:10:46.839Z,77.20
2018-07-15T14:13:15.170Z,76.80
2018-07-15T14:15:43.551Z,76.40
2018-07-15T14:18:11.920Z,77.40
2018-07-15T14:20:40.256Z,76.30
2018-07-15T14:23:08.626Z,76.80
2018-07-15T14:25:37.020Z,77.00
2018-07-15T14:28:05.993Z,76.80
2018-07-15T14:30:34.436Z,77.80
2018-07-15T14:33:02.870Z,78.40
2018-07-15T14:35:31.240Z,77.10
2018-07-15T14:37:59.727Z,78.20
2018-07-15T14:40:28.113Z,77.70
2018-07-15T14:42:56.477Z,78.30
2018-07-15T14:45:24.937Z,78.10
2018-07-15T14:47:53.327Z,78.20
2018-07-15T14:50:21.692Z,79.40
2018-07-15T14:52:50.163Z,79.30
2018-07-15T14:55:18.586Z,79.70
2018-07-15T14:57:47.058Z,80.90
2018-07-15T15:00:15.408Z,81.20
2018-07-15T15:02:43.865Z,81.80
2018-07-15T15:05:12.277Z,79.80
2018-07-15T15:07:40.711Z,79.70
2018-07-15T15:10:09.101Z,80.10
2018-07-15T15:12:37.494Z,80.60
2018-07-15T15:15:06.138Z,78.20
2018-07-15T15:17:34.519Z,77.70
2018-07-15T15:20:02.956Z,78.20
2018-07-15T15:22:31.407Z,76.80
2018-07-15T15:24:59.813Z,79.90
2018-07-15T15:27:28.192Z,81.50
2018-07-15T15:29:56.585Z,83.20
2018-07-15T15:32:25.098Z,83.80
2018-07-15T15:34:53.473Z,85.40
2018-07-15T15:37:21.912Z,86.10
2018-07-15T15:39:50.401Z,85.80
2018-07-15T15:42:18.802Z,86.50
2018-07-15T15:44:47.237Z,86.40
2018-07-15T15:47:15.759Z,87.90
2018-07-15T15:49:44.137Z,90.10
2018-07-15T15:52:12.576Z,90.70
2018-07-15T15:54:40.946Z,90.30
2018-07-15T15:57:09.352Z,90.00
2018-07-15T15:59:37.738Z,90.50
2018-07-15T16:02:06.250Z,90.60
2018-07-15T16:04:34.726Z,90.50
2018-07-15T16:07:03.203Z,91.00
2018-07-15T16:09:31.569Z,91.40
2018-07-15T16:12:00.069Z,92.00
2018-07-15T16:14:28.490Z,92.30
2018-07-15T16:16:56.909Z,92.90
2018-07-15T16:19:25.451Z,93.70
2018-07-15T16:21:53.960Z,93.90
2018-07-15T16:24:22.424Z,93.50
2018-07-15T16:26:51.176Z,93.40
2018-07-15T16:29:19.820Z,93.70
2018-07-15T16:31:48.304Z,93.00
2018-07-15T16:34:16.861Z,93.90
2018-07-15T16:36:45.304Z,94.70
2018-07-15T16:39:13.755Z,96.60
2018-07-15T16:41:42.350Z,96.10
2018-07-15T16:44:10.805Z,97.70
2018-07-15T16:46:39.313Z,98.60
2018-07-15T16:49:17.228Z,97.10
2018-07-15T16:51:45.692Z,96.00
2018-07-15T16:54:14.303Z,95.30
2018-07-15T16:56:42.828Z,95.40
2018-07-15T16:59:11.229Z,96.00
2018-07-15T17:01:39.799Z,94.30
2018-07-15T17:04:08.214Z,94.50
2018-07-15T17:06:36.886Z,94.20
2018-07-15T17:09:06.027Z,94.70
2018-07-15T17:11:34.565Z,94.70
2018-07-15T17:14:03.068Z,94.80
2018-07-15T17:16:31.777Z,96.00
2018-07-15T17:19:00.453Z,95.80
2018-07-15T17:21:29.047Z,95.10
2018-07-15T17:23:57.456Z,95.50
2018-07-15T17:26:25.992Z,96.60
2018-07-15T17:28:54.422Z,97.70
2018-07-15T17:31:22.894Z,97.20
2018-07-15T17:33:51.319Z,97.10
2018-07-15T17:36:19.783Z,96.70
2018-07-15T17:38:48.382Z,96.50
2018-07-15T17:41:17.024Z,97.00
2018-07-15T17:43:45.837Z,96.80
2018-07-15T17:46:14.246Z,96.40
2018-07-15T17:48:42.669Z,95.60
2018-07-15T17:51:11.093Z,95.60
2018-07-15T17:53:39.677Z,95.70
2018-07-15T17:56:08.322Z,95.00
2018-07-15T17:58:37.084Z,95.20
2018-07-15T18:01:05.503Z,95.30
2018-07-15T18:03:34.023Z,94.80
2018-07-15T18:06:02.730Z,95.00
2018-07-15T18:08:31.134Z,95.00
2018-07-15T18:10:59.544Z,95.40
2018-07-15T18:13:27.965Z,95.50
2018-07-15T18:15:56.510Z,95.70
2018-07-15T18:18:24.885Z,95.70
2018-07-15T18:20:53.400Z,95.60
2018-07-15T18:23:21.718Z,95.60
2018-07-15T18:25:50.182Z,95.50
2018-07-15T18:28:18.646Z,95.70
2018-07-15T18:30:47.446Z,95.50
2018-07-15T18:33:16.208Z,95.50
2018-07-15T18:35:44.734Z,95.70
2018-07-15T18:38:13.523Z,95.80
2018-07-15T18:40:41.982Z,96.50
2018-07-15T18:43:10.465Z,96.50
2018-07-15T18:45:38.844Z,96.60
2018-07-15T18:48:07.218Z,96.90
2018-07-15T18:50:35.695Z,96.70
2018-07-15T18:53:04.640Z,97.10
2018-07-15T18:55:33.151Z,97.20
2018-07-15T18:58:01.558Z,97.30
2018-07-15T19:00:29.972Z,97.50
2018-07-15T19:02:58.462Z,98.00
2018-07-15T19:05:27.161Z,98.20
2018-07-15T19:07:55.840Z,99.60
2018-07-15T19:10:24.602Z,99.80
2018-07-15T19:12:53.463Z,99.90
2018-07-15T19:15:21.987Z,99.90
2018-07-15T19:17:50.558Z,99.90
2018-07-15T19:20:19.025Z,99.90
2018-07-15T19:22:47.422Z,99.90
2018-07-15T19:25:15.843Z,99.90
2018-07-15T19:27:44.408Z,99.90
2018-07-15T19:30:13.311Z,99.90
2018-07-15T19:32:42.161Z,99.90
2018-07-15T19:35:10.662Z,99.90
2018-07-15T19:37:39.120Z,99.90
2018-07-15T19:40:07.562Z,99.90
2018-07-15T19:42:35.939Z,99.90
2018-07-15T19:45:04.651Z,99.90
2018-07-15T19:47:33.048Z,99.90
2018-07-15T19:50:01.881Z,99.90
2018-07-15T19:52:30.858Z,99.90
2018-07-15T19:54:59.609Z,99.90
2018-07-15T19:57:28.394Z,99.90
2018-07-15T19:59:57.012Z,99.90
2018-07-15T20:02:25.828Z,99.90
2018-07-15T20:04:54.512Z,99.90
2018-07-15T20:07:22.960Z,99.90
2018-07-15T20:09:51.532Z,99.90
2018-07-15T20:12:20.001Z,99.90
2018-07-15T20:14:48.482Z,99.90
2018-07-15T20:17:17.028Z,99.90
2018-07-15T20:19:45.433Z,99.90
2018-07-15T20:22:13.917Z,99.90
2018-07-15T20:24:42.363Z,99.90
2018-07-15T20:27:10.819Z,99.90
2018-07-15T20:29:39.265Z,99.90
2018-07-15T20:32:07.739Z,99.90
2018-07-15T20:34:36.186Z,99.90
2018-07-15T20:37:04.647Z,99.90
2018-07-15T20:39:33.292Z,99.90
2018-07-15T20:42:01.814Z,99.90
2018-07-15T20:44:30.329Z,99.90
2018-07-15T20:46:58.745Z,99.90
2018-07-15T20:49:27.283Z,99.90
2018-07-15T20:51:55.754Z,99.90
2018-07-15T20:54:24.531Z,99.90
2018-07-15T20:56:52.984Z,99.90
2018-07-15T20:59:21.343Z,99.90
2018-07-15T21:01:49.763Z,99.90
2018-07-15T21:04:18.224Z,99.90
2018-07-15T21:06:46.698Z,99.90
2018-07-15T21:09:15.133Z,99.90
2018-07-15T21:11:43.530Z,99.90
2018-07-15T21:14:11.940Z,99.90
2018-07-15T21:16:40.322Z,99.90
2018-07-15T21:19:08.731Z,99.90
2018-07-15T21:21:37.129Z,99.90
2018-07-15T21:24:05.657Z,99.90
2018-07-15T21:26:34.109Z,99.90
2018-07-15T21:29:02.538Z,99.90
2018-07-15T21:31:31.047Z,99.90
2018-07-15T21:33:59.349Z,99.90
2018-07-15T21:36:27.741Z,99.90
2018-07-15T21:38:56.164Z,99.90
2018-07-15T21:41:24.633Z,99.90
2018-07-15T21:43:53.049Z,99.90
2018-07-15T21:46:21.468Z,99.90
2018-07-15T21:48:49.837Z,99.90
2018-07-15T21:51:18.318Z,99.90
2018-07-15T21:53:46.708Z,99.90
2018-07-15T21:56:15.113Z,99.90
2018-07-15T21:58:43.550Z,99.90
2018-07-15T22:01:11.961Z,99.90
2018-07-15T22:03:40.458Z,99.90
2018-07-15T22:06:19.031Z,99.90
2018-07-15T22:08:59.041Z,99.90
2018-07-15T22:11:27.472Z,99.90
2018-07-15T22:13:55.825Z,99.90
2018-07-15T22:16:24.145Z,99.90
2018-07-15T22:18:53.485Z,99.90
2018-07-15T22:21:21.868Z,99.90
2018-07-15T22:23:50.222Z,99.90
2018-07-15T22:26:18.666Z,99.90
2018-07-15T22:28:47.066Z,99.90
2018-07-15T22:31:15.529Z,99.90
2018-07-15T22:33:43.914Z,99.90
2018-07-15T22:36:12.271Z,99.90
2018-07-15T22:38:40.787Z,99.90
2018-07-15T22:41:09.172Z,99.90
2018-07-15T22:43:37.572Z,99.90
2018-07-15T22:46:05.964Z,99.90
2018-07-15T22:48:34.344Z,99.90
2018-07-15T22:51:02.742Z,99.90
2018-07-15T22:53:31.138Z,99.90
2018-07-15T22:55:59.557Z,99.90
2018-07-15T22:58:27.974Z,99.90
2018-07-15T23:00:56.357Z,99.90
2018-07-15T23:03:24.749Z,99.90
2018-07-15T23:08:28.815Z,99.90
2018-07-15T23:10:57.265Z,99.90
2018-07-15T23:13:25.899Z,99.90
2018-07-15T23:15:54.354Z,99.90
2018-07-15T23:18:22.881Z,99.90
2018-07-15T23:20:51.816Z,99.90
2018-07-15T23:23:20.231Z,99.90
2018-07-15T23:25:48.594Z,99.90
2018-07-15T23:28:17.557Z,99.90
2018-07-15T23:30:46.352Z,99.90
2018-07-15T23:33:14.733Z,99.90
2018-07-15T23:35:43.215Z,99.90
2018-07-15T23:38:11.590Z,99.90
2018-07-15T23:40:40.025Z,99.90
2018-07-15T23:43:08.401Z,99.90
2018-07-15T23:45:37.150Z,99.90
2018-07-15T23:48:05.697Z,99.90
2018-07-15T23:50:34.209Z,99.90
2018-07-15T23:53:02.595Z,99.90
2018-07-15T23:55:30.981Z,99.90
2018-07-15T23:57:59.366Z,99.90
